sensor_id;sensor_type;location;lat;lon;timestamp;pressure;altitude;pressure_sealevel;temperature;humidity
81913;BME280;71377;50.698;7.164;2024-02-15T00:01:49;101185.59;;;12.32;98.90
81913;BME280;71377;50.698;7.164;2024-02-15T00:04:16;101182.06;;;12.33;99.55
81913;BME280;71377;50.698;7.164;2024-02-15T00:07:01;101186.47;;;12.32;99.29
81913;BME280;71377;50.698;7.164;2024-02-15T00:09:28;101189.94;;;12.34;97.56
81913;BME280;71377;50.698;7.164;2024-02-15T00:11:56;101189.47;;;12.22;99.31
81913;BME280;71377;50.698;7.164;2024-02-15T00:14:22;101196.97;;;12.34;97.69
81913;BME280;71377;50.698;7.164;2024-02-15T00:16:49;101191.13;;;12.24;98.87
81913;BME280;71377;50.698;7.164;2024-02-15T00:19:15;101197.53;;;12.17;99.09
81913;BME280;71377;50.698;7.164;2024-02-15T00:21:43;101197.25;;;12.25;98.59
81913;BME280;71377;50.698;7.164;2024-02-15T00:24:10;101202.25;;;12.34;97.55
81913;BME280;71377;50.698;7.164;2024-02-15T00:26:38;101201.94;;;12.16;99.12
81913;BME280;71377;50.698;7.164;2024-02-15T00:29:04;101205.09;;;12.28;98.85
81913;BME280;71377;50.698;7.164;2024-02-15T00:31:31;101197.56;;;12.15;99.53
81913;BME280;71377;50.698;7.164;2024-02-15T00:33:58;101205.03;;;12.29;98.77
81913;BME280;71377;50.698;7.164;2024-02-15T00:36:26;101202.44;;;12.28;97.99
81913;BME280;71377;50.698;7.164;2024-02-15T00:38:53;101203.19;;;12.31;98.31
81913;BME280;71377;50.698;7.164;2024-02-15T00:41:19;101199.09;;;12.23;98.68
81913;BME280;71377;50.698;7.164;2024-02-15T00:43:47;101196.56;;;12.20;98.70
81913;BME280;71377;50.698;7.164;2024-02-15T00:46:17;101195.91;;;12.13;99.66
81913;BME280;71377;50.698;7.164;2024-02-15T00:48:44;101198.16;;;12.25;98.48
81913;BME280;71377;50.698;7.164;2024-02-15T00:51:10;101202.03;;;12.13;99.22
81913;BME280;71377;50.698;7.164;2024-02-15T00:53:37;101194.25;;;12.10;99.53
81913;BME280;71377;50.698;7.164;2024-02-15T00:56:04;101198.94;;;12.27;99.08
81913;BME280;71377;50.698;7.164;2024-02-15T00:58:33;101200.63;;;12.30;97.37
81913;BME280;71377;50.698;7.164;2024-02-15T01:00:59;101199.19;;;12.20;98.22
81913;BME280;71377;50.698;7.164;2024-02-15T01:03:26;101190.81;;;12.33;97.30
81913;BME280;71377;50.698;7.164;2024-02-15T01:05:53;101194.00;;;12.18;98.21
81913;BME280;71377;50.698;7.164;2024-02-15T01:08:19;101204.47;;;12.20;98.38
81913;BME280;71377;50.698;7.164;2024-02-15T01:10:46;101197.25;;;12.25;98.18
81913;BME280;71377;50.698;7.164;2024-02-15T01:13:13;101199.00;;;12.26;97.35
81913;BME280;71377;50.698;7.164;2024-02-15T01:15:40;101202.38;;;12.29;97.69
81913;BME280;71377;50.698;7.164;2024-02-15T01:18:07;101205.56;;;12.39;97.09
81913;BME280;71377;50.698;7.164;2024-02-15T01:20:34;101204.09;;;12.57;95.60
81913;BME280;71377;50.698;7.164;2024-02-15T01:23:01;101201.88;;;12.44;96.62
81913;BME280;71377;50.698;7.164;2024-02-15T01:25:27;101201.09;;;12.41;96.22
81913;BME280;71377;50.698;7.164;2024-02-15T01:27:54;101203.06;;;12.36;97.11
81913;BME280;71377;50.698;7.164;2024-02-15T01:30:21;101201.53;;;12.29;97.41
81913;BME280;71377;50.698;7.164;2024-02-15T01:32:48;101200.50;;;12.33;98.16
81913;BME280;71377;50.698;7.164;2024-02-15T01:35:14;101198.78;;;12.32;97.39
81913;BME280;71377;50.698;7.164;2024-02-15T01:37:41;101191.78;;;12.31;97.41
81913;BME280;71377;50.698;7.164;2024-02-15T01:40:08;101192.13;;;12.47;96.24
81913;BME280;71377;50.698;7.164;2024-02-15T01:42:39;101191.59;;;12.37;97.05
81913;BME280;71377;50.698;7.164;2024-02-15T01:45:06;101184.59;;;12.36;96.93
81913;BME280;71377;50.698;7.164;2024-02-15T01:47:32;101191.09;;;12.26;97.97
81913;BME280;71377;50.698;7.164;2024-02-15T01:49:59;101188.66;;;12.46;97.08
81913;BME280;71377;50.698;7.164;2024-02-15T01:52:27;101184.59;;;12.36;96.89
81913;BME280;71377;50.698;7.164;2024-02-15T01:54:54;101180.41;;;12.30;97.61
81913;BME280;71377;50.698;7.164;2024-02-15T01:57:21;101181.38;;;12.28;98.09
81913;BME280;71377;50.698;7.164;2024-02-15T01:59:50;101183.16;;;12.27;97.94
81913;BME280;71377;50.698;7.164;2024-02-15T02:02:20;101181.19;;;12.34;97.44
81913;BME280;71377;50.698;7.164;2024-02-15T02:04:47;101175.84;;;12.35;97.32
81913;BME280;71377;50.698;7.164;2024-02-15T02:07:13;101174.75;;;12.41;96.98
81913;BME280;71377;50.698;7.164;2024-02-15T02:09:41;101168.88;;;12.33;97.02
81913;BME280;71377;50.698;7.164;2024-02-15T02:12:08;101171.53;;;12.33;97.37
81913;BME280;71377;50.698;7.164;2024-02-15T02:14:34;101172.44;;;12.32;97.72
81913;BME280;71377;50.698;7.164;2024-02-15T02:17:13;101167.16;;;12.32;97.51
81913;BME280;71377;50.698;7.164;2024-02-15T02:19:41;101163.00;;;12.25;97.57
81913;BME280;71377;50.698;7.164;2024-02-15T02:22:09;101159.44;;;12.27;97.10
81913;BME280;71377;50.698;7.164;2024-02-15T02:24:40;101164.84;;;12.23;97.90
81913;BME280;71377;50.698;7.164;2024-02-15T02:27:13;101152.03;;;12.38;97.17
81913;BME280;71377;50.698;7.164;2024-02-15T02:29:43;101155.81;;;12.30;97.24
81913;BME280;71377;50.698;7.164;2024-02-15T02:32:13;101157.50;;;12.32;97.10
81913;BME280;71377;50.698;7.164;2024-02-15T02:34:39;101154.06;;;12.30;96.98
81913;BME280;71377;50.698;7.164;2024-02-15T02:37:07;101148.13;;;12.24;97.64
81913;BME280;71377;50.698;7.164;2024-02-15T02:39:34;101153.19;;;12.30;97.43
81913;BME280;71377;50.698;7.164;2024-02-15T02:42:01;101153.25;;;12.28;96.42
81913;BME280;71377;50.698;7.164;2024-02-15T02:44:28;101151.41;;;12.30;96.69
81913;BME280;71377;50.698;7.164;2024-02-15T02:46:54;101150.97;;;12.44;96.32
81913;BME280;71377;50.698;7.164;2024-02-15T02:49:21;101139.63;;;12.15;97.90
81913;BME280;71377;50.698;7.164;2024-02-15T02:51:48;101131.59;;;12.20;97.64
81913;BME280;71377;50.698;7.164;2024-02-15T02:54:14;101130.19;;;12.35;97.92
81913;BME280;71377;50.698;7.164;2024-02-15T02:56:41;101128.38;;;12.37;96.41
81913;BME280;71377;50.698;7.164;2024-02-15T02:59:10;101123.31;;;12.31;96.79
81913;BME280;71377;50.698;7.164;2024-02-15T03:01:36;101135.94;;;12.21;97.40
81913;BME280;71377;50.698;7.164;2024-02-15T03:04:03;101124.84;;;12.11;98.09
81913;BME280;71377;50.698;7.164;2024-02-15T03:06:29;101120.38;;;12.13;97.49
81913;BME280;71377;50.698;7.164;2024-02-15T03:08:57;101118.34;;;12.22;97.50
81913;BME280;71377;50.698;7.164;2024-02-15T03:11:24;101121.91;;;12.21;97.02
81913;BME280;71377;50.698;7.164;2024-02-15T03:13:50;101120.31;;;12.16;97.81
81913;BME280;71377;50.698;7.164;2024-02-15T03:16:17;101118.16;;;12.28;96.99
81913;BME280;71377;50.698;7.164;2024-02-15T03:18:43;101114.47;;;12.07;98.38
81913;BME280;71377;50.698;7.164;2024-02-15T03:21:10;101110.72;;;12.14;98.03
81913;BME280;71377;50.698;7.164;2024-02-15T03:23:37;101104.50;;;12.16;98.14
81913;BME280;71377;50.698;7.164;2024-02-15T03:26:04;101108.78;;;12.19;97.42
81913;BME280;71377;50.698;7.164;2024-02-15T03:28:30;101102.75;;;12.15;97.72
81913;BME280;71377;50.698;7.164;2024-02-15T03:30:56;101109.34;;;12.29;96.77
81913;BME280;71377;50.698;7.164;2024-02-15T03:33:23;101107.44;;;12.32;97.09
81913;BME280;71377;50.698;7.164;2024-02-15T03:35:53;101111.56;;;12.14;97.55
81913;BME280;71377;50.698;7.164;2024-02-15T03:38:19;101108.50;;;12.02;98.27
81913;BME280;71377;50.698;7.164;2024-02-15T03:40:46;101111.81;;;12.08;98.20
81913;BME280;71377;50.698;7.164;2024-02-15T03:43:12;101098.63;;;12.08;98.08
81913;BME280;71377;50.698;7.164;2024-02-15T03:45:39;101110.06;;;12.07;98.41
81913;BME280;71377;50.698;7.164;2024-02-15T03:48:06;101111.69;;;12.11;98.77
81913;BME280;71377;50.698;7.164;2024-02-15T03:50:34;101109.84;;;12.13;98.49
81913;BME280;71377;50.698;7.164;2024-02-15T03:53:00;101108.34;;;12.06;98.54
81913;BME280;71377;50.698;7.164;2024-02-15T03:55:27;101110.56;;;12.19;97.66
81913;BME280;71377;50.698;7.164;2024-02-15T03:57:53;101112.41;;;12.16;97.56
81913;BME280;71377;50.698;7.164;2024-02-15T04:00:23;101122.34;;;12.08;98.88
81913;BME280;71377;50.698;7.164;2024-02-15T04:02:51;101120.56;;;12.09;98.77
81913;BME280;71377;50.698;7.164;2024-02-15T04:05:18;101116.94;;;12.11;98.22
81913;BME280;71377;50.698;7.164;2024-02-15T04:07:45;101117.06;;;12.08;98.89
81913;BME280;71377;50.698;7.164;2024-02-15T04:10:12;101113.59;;;12.06;99.04
81913;BME280;71377;50.698;7.164;2024-02-15T04:12:39;101105.81;;;12.03;99.32
81913;BME280;71377;50.698;7.164;2024-02-15T04:15:08;101103.66;;;12.14;98.82
81913;BME280;71377;50.698;7.164;2024-02-15T04:17:40;101113.59;;;12.06;98.49
81913;BME280;71377;50.698;7.164;2024-02-15T04:20:09;101111.50;;;12.16;98.27
81913;BME280;71377;50.698;7.164;2024-02-15T04:22:35;101113.28;;;12.15;98.21
81913;BME280;71377;50.698;7.164;2024-02-15T04:25:06;101110.38;;;11.98;99.21
81913;BME280;71377;50.698;7.164;2024-02-15T04:27:33;101112.38;;;11.92;99.24
81913;BME280;71377;50.698;7.164;2024-02-15T04:30:00;101107.16;;;12.15;98.23
81913;BME280;71377;50.698;7.164;2024-02-15T04:32:26;101107.81;;;12.22;97.30
81913;BME280;71377;50.698;7.164;2024-02-15T04:34:52;101110.31;;;12.26;97.71
81913;BME280;71377;50.698;7.164;2024-02-15T04:37:19;101100.50;;;12.30;97.15
81913;BME280;71377;50.698;7.164;2024-02-15T04:39:46;101106.81;;;12.26;97.62
81913;BME280;71377;50.698;7.164;2024-02-15T04:42:14;101098.78;;;12.29;97.23
81913;BME280;71377;50.698;7.164;2024-02-15T04:44:41;101102.44;;;12.25;97.30
81913;BME280;71377;50.698;7.164;2024-02-15T04:47:08;101101.09;;;12.13;97.80
81913;BME280;71377;50.698;7.164;2024-02-15T04:49:35;101106.75;;;12.27;98.39
81913;BME280;71377;50.698;7.164;2024-02-15T04:52:05;101101.56;;;12.24;97.50
81913;BME280;71377;50.698;7.164;2024-02-15T04:54:32;101097.75;;;12.33;97.58
81913;BME280;71377;50.698;7.164;2024-02-15T04:56:59;101104.50;;;12.16;98.37
81913;BME280;71377;50.698;7.164;2024-02-15T04:59:26;101107.63;;;12.28;98.17
81913;BME280;71377;50.698;7.164;2024-02-15T05:01:55;101103.53;;;12.44;96.87
81913;BME280;71377;50.698;7.164;2024-02-15T05:04:24;101105.78;;;12.30;97.39
81913;BME280;71377;50.698;7.164;2024-02-15T05:06:51;101098.34;;;12.41;97.22
81913;BME280;71377;50.698;7.164;2024-02-15T05:09:17;101090.84;;;12.30;97.60
81913;BME280;71377;50.698;7.164;2024-02-15T05:11:44;101090.84;;;12.30;97.43
81913;BME280;71377;50.698;7.164;2024-02-15T05:14:15;101093.59;;;12.27;97.83
81913;BME280;71377;50.698;7.164;2024-02-15T05:16:46;101092.88;;;12.22;97.99
81913;BME280;71377;50.698;7.164;2024-02-15T05:19:15;101084.59;;;12.33;97.36
81913;BME280;71377;50.698;7.164;2024-02-15T05:21:45;101085.22;;;12.39;96.83
81913;BME280;71377;50.698;7.164;2024-02-15T05:24:16;101083.19;;;12.23;98.41
81913;BME280;71377;50.698;7.164;2024-02-15T05:26:44;101082.41;;;12.21;98.16
81913;BME280;71377;50.698;7.164;2024-02-15T05:29:15;101087.19;;;12.34;97.15
81913;BME280;71377;50.698;7.164;2024-02-15T05:31:42;101081.28;;;12.28;97.55
81913;BME280;71377;50.698;7.164;2024-02-15T05:34:10;101077.50;;;12.35;97.64
81913;BME280;71377;50.698;7.164;2024-02-15T05:36:39;101083.53;;;12.13;98.40
81913;BME280;71377;50.698;7.164;2024-02-15T05:39:05;101070.56;;;12.07;99.34
81913;BME280;71377;50.698;7.164;2024-02-15T05:41:32;101087.72;;;12.19;98.27
81913;BME280;71377;50.698;7.164;2024-02-15T05:43:59;101084.72;;;12.30;97.90
81913;BME280;71377;50.698;7.164;2024-02-15T05:46:25;101070.88;;;12.23;97.71
81913;BME280;71377;50.698;7.164;2024-02-15T05:48:54;101085.78;;;12.24;98.28
81913;BME280;71377;50.698;7.164;2024-02-15T05:51:22;101088.47;;;12.23;97.92
81913;BME280;71377;50.698;7.164;2024-02-15T05:53:49;101081.16;;;12.31;97.46
81913;BME280;71377;50.698;7.164;2024-02-15T05:56:16;101077.38;;;12.38;97.39
81913;BME280;71377;50.698;7.164;2024-02-15T05:58:42;101076.47;;;12.39;96.93
81913;BME280;71377;50.698;7.164;2024-02-15T06:01:09;101070.28;;;12.40;97.23
81913;BME280;71377;50.698;7.164;2024-02-15T06:03:39;101071.78;;;12.47;96.49
81913;BME280;71377;50.698;7.164;2024-02-15T06:06:07;101074.03;;;12.33;96.57
81913;BME280;71377;50.698;7.164;2024-02-15T06:08:35;101071.47;;;12.31;96.65
81913;BME280;71377;50.698;7.164;2024-02-15T06:11:02;101073.31;;;12.29;96.72
81913;BME280;71377;50.698;7.164;2024-02-15T06:13:29;101074.88;;;12.35;96.43
81913;BME280;71377;50.698;7.164;2024-02-15T06:15:55;101075.41;;;12.44;96.27
81913;BME280;71377;50.698;7.164;2024-02-15T06:18:24;101078.44;;;12.34;95.86
81913;BME280;71377;50.698;7.164;2024-02-15T06:20:51;101076.66;;;12.34;95.74
81913;BME280;71377;50.698;7.164;2024-02-15T06:23:21;101068.63;;;12.37;96.02
81913;BME280;71377;50.698;7.164;2024-02-15T06:25:51;101075.88;;;12.31;96.51
81913;BME280;71377;50.698;7.164;2024-02-15T06:28:20;101062.63;;;12.34;95.91
81913;BME280;71377;50.698;7.164;2024-02-15T06:31:06;101064.47;;;12.55;94.67
81913;BME280;71377;50.698;7.164;2024-02-15T06:33:52;101069.16;;;12.47;95.11
81913;BME280;71377;50.698;7.164;2024-02-15T06:36:46;101065.00;;;12.40;95.86
81913;BME280;71377;50.698;7.164;2024-02-15T06:39:32;101065.66;;;12.47;95.44
81913;BME280;71377;50.698;7.164;2024-02-15T06:42:09;101059.88;;;12.37;95.84
81913;BME280;71377;50.698;7.164;2024-02-15T06:44:37;101062.66;;;12.32;95.71
81913;BME280;71377;50.698;7.164;2024-02-15T06:47:07;101070.41;;;12.37;95.43
81913;BME280;71377;50.698;7.164;2024-02-15T06:49:37;101076.00;;;12.28;95.93
81913;BME280;71377;50.698;7.164;2024-02-15T06:52:07;101068.97;;;12.28;96.36
81913;BME280;71377;50.698;7.164;2024-02-15T06:54:38;101069.22;;;12.45;95.51
81913;BME280;71377;50.698;7.164;2024-02-15T06:57:05;101066.72;;;12.41;95.46
81913;BME280;71377;50.698;7.164;2024-02-15T06:59:32;101069.03;;;12.27;96.16
81913;BME280;71377;50.698;7.164;2024-02-15T07:01:59;101067.06;;;12.32;95.72
81913;BME280;71377;50.698;7.164;2024-02-15T07:04:26;101068.34;;;12.45;95.18
81913;BME280;71377;50.698;7.164;2024-02-15T07:06:53;101067.72;;;12.38;95.37
81913;BME280;71377;50.698;7.164;2024-02-15T07:09:21;101070.00;;;12.48;94.73
81913;BME280;71377;50.698;7.164;2024-02-15T07:11:51;101082.50;;;12.42;95.24
81913;BME280;71377;50.698;7.164;2024-02-15T07:14:17;101077.28;;;12.41;95.76
81913;BME280;71377;50.698;7.164;2024-02-15T07:16:48;101088.97;;;12.34;95.86
81913;BME280;71377;50.698;7.164;2024-02-15T07:19:16;101075.78;;;12.34;96.14
81913;BME280;71377;50.698;7.164;2024-02-15T07:21:43;101083.47;;;12.40;95.38
81913;BME280;71377;50.698;7.164;2024-02-15T07:24:10;101077.72;;;12.29;96.11
81913;BME280;71377;50.698;7.164;2024-02-15T07:26:36;101085.09;;;12.44;95.85
81913;BME280;71377;50.698;7.164;2024-02-15T07:29:03;101087.13;;;12.59;95.15
81913;BME280;71377;50.698;7.164;2024-02-15T07:31:34;101094.25;;;12.57;94.81
81913;BME280;71377;50.698;7.164;2024-02-15T07:34:00;101085.22;;;12.64;94.80
81913;BME280;71377;50.698;7.164;2024-02-15T07:36:27;101088.88;;;12.60;95.15
81913;BME280;71377;50.698;7.164;2024-02-15T07:38:54;101088.88;;;12.60;94.33
81913;BME280;71377;50.698;7.164;2024-02-15T07:41:24;101094.44;;;12.53;95.26
81913;BME280;71377;50.698;7.164;2024-02-15T07:43:51;101094.03;;;12.63;95.23
81913;BME280;71377;50.698;7.164;2024-02-15T07:46:21;101098.66;;;12.57;94.87
81913;BME280;71377;50.698;7.164;2024-02-15T07:48:48;101097.81;;;12.56;95.67
81913;BME280;71377;50.698;7.164;2024-02-15T07:51:20;101102.09;;;12.59;95.23
81913;BME280;71377;50.698;7.164;2024-02-15T07:53:47;101101.22;;;12.58;95.09
81913;BME280;71377;50.698;7.164;2024-02-15T07:56:15;101104.13;;;12.52;95.54
81913;BME280;71377;50.698;7.164;2024-02-15T07:58:47;101106.97;;;12.46;96.18
81913;BME280;71377;50.698;7.164;2024-02-15T08:01:19;101108.78;;;12.44;96.54
81913;BME280;71377;50.698;7.164;2024-02-15T08:03:51;101103.41;;;12.47;96.42
81913;BME280;71377;50.698;7.164;2024-02-15T08:06:22;101108.78;;;12.44;96.53
81913;BME280;71377;50.698;7.164;2024-02-15T08:08:52;101107.09;;;12.41;97.06
81913;BME280;71377;50.698;7.164;2024-02-15T08:11:19;101108.56;;;12.50;96.24
81913;BME280;71377;50.698;7.164;2024-02-15T08:13:46;101105.59;;;12.59;95.77
81913;BME280;71377;50.698;7.164;2024-02-15T08:16:16;101114.66;;;12.76;95.29
81913;BME280;71377;50.698;7.164;2024-02-15T08:18:45;101107.03;;;12.68;95.43
81913;BME280;71377;50.698;7.164;2024-02-15T08:21:15;101112.78;;;12.79;94.04
81913;BME280;71377;50.698;7.164;2024-02-15T08:23:41;101100.69;;;12.73;94.79
81913;BME280;71377;50.698;7.164;2024-02-15T08:26:08;101106.47;;;12.83;94.50
81913;BME280;71377;50.698;7.164;2024-02-15T08:28:37;101096.16;;;13.00;94.09
81913;BME280;71377;50.698;7.164;2024-02-15T08:31:03;101099.06;;;12.93;94.27
81913;BME280;71377;50.698;7.164;2024-02-15T08:33:30;101106.59;;;12.80;94.93
81913;BME280;71377;50.698;7.164;2024-02-15T08:35:57;101095.69;;;12.89;94.61
81913;BME280;71377;50.698;7.164;2024-02-15T08:38:24;101097.69;;;13.06;92.97
81913;BME280;71377;50.698;7.164;2024-02-15T08:40:51;101103.63;;;13.11;92.93
81913;BME280;71377;50.698;7.164;2024-02-15T08:43:17;101095.31;;;13.23;93.24
81913;BME280;71377;50.698;7.164;2024-02-15T08:45:44;101086.81;;;13.15;92.77
81913;BME280;71377;50.698;7.164;2024-02-15T08:48:11;101085.19;;;13.11;92.38
81913;BME280;71377;50.698;7.164;2024-02-15T08:50:39;101084.16;;;13.15;92.19
81913;BME280;71377;50.698;7.164;2024-02-15T08:53:05;101070.41;;;13.07;92.24
81913;BME280;71377;50.698;7.164;2024-02-15T08:55:34;101077.97;;;13.16;92.08
81913;BME280;71377;50.698;7.164;2024-02-15T08:58:02;101074.69;;;13.33;91.06
81913;BME280;71377;50.698;7.164;2024-02-15T09:00:30;101067.88;;;13.27;90.54
81913;BME280;71377;50.698;7.164;2024-02-15T09:02:57;101068.56;;;13.33;90.30
81913;BME280;71377;50.698;7.164;2024-02-15T09:05:23;101081.31;;;13.21;90.49
81913;BME280;71377;50.698;7.164;2024-02-15T09:07:50;101066.47;;;13.17;90.76
81913;BME280;71377;50.698;7.164;2024-02-15T09:10:18;101063.94;;;13.38;88.75
81913;BME280;71377;50.698;7.164;2024-02-15T09:12:45;101064.50;;;13.46;88.59
81913;BME280;71377;50.698;7.164;2024-02-15T09:15:16;101057.25;;;13.51;88.16
81913;BME280;71377;50.698;7.164;2024-02-15T09:17:44;101066.09;;;13.50;87.67
81913;BME280;71377;50.698;7.164;2024-02-15T09:20:13;101064.34;;;13.71;86.30
81913;BME280;71377;50.698;7.164;2024-02-15T09:22:48;101055.41;;;13.75;86.27
81913;BME280;71377;50.698;7.164;2024-02-15T09:25:15;101063.97;;;13.80;86.08
81913;BME280;71377;50.698;7.164;2024-02-15T09:27:42;101060.16;;;13.87;85.53
81913;BME280;71377;50.698;7.164;2024-02-15T09:30:10;101058.72;;;14.00;84.19
81913;BME280;71377;50.698;7.164;2024-02-15T09:32:36;101048.38;;;14.14;83.81
81913;BME280;71377;50.698;7.164;2024-02-15T09:35:04;101043.50;;;14.05;83.46
81913;BME280;71377;50.698;7.164;2024-02-15T09:37:35;101046.41;;;14.20;82.52
81913;BME280;71377;50.698;7.164;2024-02-15T09:40:02;101042.91;;;14.19;82.64
81913;BME280;71377;50.698;7.164;2024-02-15T09:42:32;101040.53;;;14.13;82.97
81913;BME280;71377;50.698;7.164;2024-02-15T09:45:01;101036.28;;;14.29;82.50
81913;BME280;71377;50.698;7.164;2024-02-15T09:47:37;101041.84;;;14.23;81.00
81913;BME280;71377;50.698;7.164;2024-02-15T09:50:12;101046.56;;;14.17;82.07
81913;BME280;71377;50.698;7.164;2024-02-15T09:52:43;101039.34;;;14.20;81.27
81913;BME280;71377;50.698;7.164;2024-02-15T09:55:11;101036.00;;;14.56;78.89
81913;BME280;71377;50.698;7.164;2024-02-15T09:57:42;101044.94;;;14.53;79.07
81913;BME280;71377;50.698;7.164;2024-02-15T10:00:10;101047.38;;;14.77;77.63
81913;BME280;71377;50.698;7.164;2024-02-15T10:02:47;101041.38;;;14.73;77.59
81913;BME280;71377;50.698;7.164;2024-02-15T10:05:14;101045.75;;;14.74;79.13
81913;BME280;71377;50.698;7.164;2024-02-15T10:07:41;101053.28;;;15.19;76.25
81913;BME280;71377;50.698;7.164;2024-02-15T10:10:23;101045.00;;;15.27;75.41
81913;BME280;71377;50.698;7.164;2024-02-15T10:12:52;101045.81;;;15.10;76.34
81913;BME280;71377;50.698;7.164;2024-02-15T10:18:06;101043.34;;;15.24;74.60
81913;BME280;71377;50.698;7.164;2024-02-15T10:20:38;101041.25;;;15.14;75.36
81913;BME280;71377;50.698;7.164;2024-02-15T10:23:13;101043.22;;;15.09;75.85
81913;BME280;71377;50.698;7.164;2024-02-15T10:25:43;101036.47;;;15.39;73.52
81913;BME280;71377;50.698;7.164;2024-02-15T10:28:11;101035.91;;;15.33;74.75
81913;BME280;71377;50.698;7.164;2024-02-15T10:30:40;101037.00;;;15.65;73.56
81913;BME280;71377;50.698;7.164;2024-02-15T10:33:09;101025.34;;;15.50;73.64
81913;BME280;71377;50.698;7.164;2024-02-15T10:35:38;101035.69;;;15.54;73.32
81913;BME280;71377;50.698;7.164;2024-02-15T10:38:06;101034.34;;;15.46;72.86
81913;BME280;71377;50.698;7.164;2024-02-15T10:40:34;101031.72;;;15.46;73.24
81913;BME280;71377;50.698;7.164;2024-02-15T10:43:04;101031.09;;;15.41;73.48
81913;BME280;71377;50.698;7.164;2024-02-15T10:45:32;101034.75;;;15.38;73.91
81913;BME280;71377;50.698;7.164;2024-02-15T10:47:59;101026.34;;;15.30;73.64
81913;BME280;71377;50.698;7.164;2024-02-15T10:50:26;101031.59;;;15.49;73.65
81913;BME280;71377;50.698;7.164;2024-02-15T10:52:58;101025.88;;;15.39;73.45
81913;BME280;71377;50.698;7.164;2024-02-15T10:55:38;101028.56;;;15.57;73.17
81913;BME280;71377;50.698;7.164;2024-02-15T10:58:12;101018.09;;;15.53;73.24
81913;BME280;71377;50.698;7.164;2024-02-15T11:00:45;101018.38;;;15.66;71.95
81913;BME280;71377;50.698;7.164;2024-02-15T11:03:20;101013.44;;;15.59;72.98
81913;BME280;71377;50.698;7.164;2024-02-15T11:05:52;101005.50;;;15.59;73.04
81913;BME280;71377;50.698;7.164;2024-02-15T11:08:21;101007.31;;;15.75;72.25
81913;BME280;71377;50.698;7.164;2024-02-15T11:10:48;101003.06;;;15.73;72.19
81913;BME280;71377;50.698;7.164;2024-02-15T11:13:15;101003.19;;;15.70;72.59
81913;BME280;71377;50.698;7.164;2024-02-15T11:15:43;100991.34;;;15.94;71.39
81913;BME280;71377;50.698;7.164;2024-02-15T11:21:15;100985.06;;;16.13;70.93
81913;BME280;71377;50.698;7.164;2024-02-15T11:23:44;100979.91;;;16.27;69.92
81913;BME280;71377;50.698;7.164;2024-02-15T11:26:43;100979.50;;;16.50;68.98
81913;BME280;71377;50.698;7.164;2024-02-15T11:32:41;100977.84;;;17.12;66.57
81913;BME280;71377;50.698;7.164;2024-02-15T11:37:51;100972.84;;;17.22;65.91
81913;BME280;71377;50.698;7.164;2024-02-15T11:40:26;100961.94;;;17.27;65.60
81913;BME280;71377;50.698;7.164;2024-02-15T11:43:00;100970.63;;;17.14;65.62
81913;BME280;71377;50.698;7.164;2024-02-15T11:45:28;100955.00;;;16.94;66.39
81913;BME280;71377;50.698;7.164;2024-02-15T11:48:08;100954.03;;;16.95;66.67
81913;BME280;71377;50.698;7.164;2024-02-15T11:50:38;100958.00;;;16.88;67.22
81913;BME280;71377;50.698;7.164;2024-02-15T11:53:09;100951.44;;;17.09;66.26
81913;BME280;71377;50.698;7.164;2024-02-15T11:55:38;100951.03;;;17.01;65.51
81913;BME280;71377;50.698;7.164;2024-02-15T11:58:05;100954.00;;;17.11;65.66
81913;BME280;71377;50.698;7.164;2024-02-15T12:00:39;100939.66;;;16.83;66.57
81913;BME280;71377;50.698;7.164;2024-02-15T12:03:25;100940.75;;;16.63;67.56
81913;BME280;71377;50.698;7.164;2024-02-15T12:06:27;100935.69;;;16.59;67.86
81913;BME280;71377;50.698;7.164;2024-02-15T12:09:17;100941.44;;;16.67;66.92
81913;BME280;71377;50.698;7.164;2024-02-15T12:12:04;100940.38;;;16.71;67.12
81913;BME280;71377;50.698;7.164;2024-02-15T12:14:49;100934.50;;;16.64;67.02
81913;BME280;71377;50.698;7.164;2024-02-15T12:17:34;100939.59;;;16.69;66.98
81913;BME280;71377;50.698;7.164;2024-02-15T12:20:19;100935.56;;;16.78;66.12
81913;BME280;71377;50.698;7.164;2024-02-15T12:22:51;100933.69;;;16.80;66.28
81913;BME280;71377;50.698;7.164;2024-02-15T12:25:19;100932.50;;;16.70;66.54
81913;BME280;71377;50.698;7.164;2024-02-15T12:27:54;100924.97;;;16.78;66.06
81913;BME280;71377;50.698;7.164;2024-02-15T12:30:21;100916.19;;;16.91;65.15
81913;BME280;71377;50.698;7.164;2024-02-15T12:32:49;100912.19;;;16.84;66.26
81913;BME280;71377;50.698;7.164;2024-02-15T12:35:22;100913.28;;;16.96;65.74
81913;BME280;71377;50.698;7.164;2024-02-15T12:40:30;100905.06;;;17.01;64.93
81913;BME280;71377;50.698;7.164;2024-02-15T12:42:57;100891.66;;;17.18;64.67
81913;BME280;71377;50.698;7.164;2024-02-15T12:45:25;100880.13;;;17.33;63.97
81913;BME280;71377;50.698;7.164;2024-02-15T12:47:54;100879.72;;;17.25;64.19
81913;BME280;71377;50.698;7.164;2024-02-15T12:50:22;100884.69;;;17.45;63.13
81913;BME280;71377;50.698;7.164;2024-02-15T12:52:50;100882.38;;;17.55;62.64
81913;BME280;71377;50.698;7.164;2024-02-15T12:55:18;100879.75;;;17.84;61.25
81913;BME280;71377;50.698;7.164;2024-02-15T12:57:50;100881.19;;;17.75;62.24
81913;BME280;71377;50.698;7.164;2024-02-15T13:00:22;100871.75;;;17.98;61.27
81913;BME280;71377;50.698;7.164;2024-02-15T13:02:51;100873.94;;;18.05;61.20
81913;BME280;71377;50.698;7.164;2024-02-15T13:05:18;100864.09;;;17.93;61.54
81913;BME280;71377;50.698;7.164;2024-02-15T13:07:46;100851.47;;;17.83;61.98
81913;BME280;71377;50.698;7.164;2024-02-15T13:10:12;100850.69;;;17.95;60.44
81913;BME280;71377;50.698;7.164;2024-02-15T13:12:41;100852.38;;;17.67;61.19
81913;BME280;71377;50.698;7.164;2024-02-15T13:15:13;100843.19;;;17.59;61.51